createdAt,value
2023-04-09T00:00:25.949Z,10.40
2023-04-09T00:02:55.955Z,10.42
2023-04-09T00:05:28.541Z,10.46
2023-04-09T00:07:58.455Z,10.45
2023-04-09T00:10:28.336Z,10.46
2023-04-09T00:12:58.161Z,10.46
2023-04-09T00:15:31.549Z,10.47
2023-04-09T00:18:02.010Z,10.47
2023-04-09T00:20:34.483Z,10.47
2023-04-09T00:23:04.356Z,10.47
2023-04-09T00:25:34.252Z,10.47
2023-04-09T00:28:04.094Z,10.42
2023-04-09T00:30:37.344Z,10.42
2023-04-09T00:33:07.227Z,10.39
2023-04-09T00:35:39.721Z,10.40
2023-04-09T00:38:09.682Z,10.39
2023-04-09T00:40:39.581Z,10.38
2023-04-09T00:43:09.397Z,10.36
2023-04-09T00:45:39.364Z,10.34
2023-04-09T00:48:09.956Z,10.33
2023-04-09T00:50:42.714Z,10.30
2023-04-09T00:53:14.469Z,10.27
2023-04-09T00:55:44.711Z,10.24
2023-04-09T00:58:14.608Z,10.22
2023-04-09T01:00:44.578Z,10.20
2023-04-09T01:03:14.639Z,10.15
2023-04-09T01:05:56.562Z,10.10
2023-04-09T01:08:36.344Z,10.04
2023-04-09T01:11:18.410Z,9.99
2023-04-09T01:13:55.599Z,9.92
2023-04-09T01:16:28.222Z,9.88
2023-04-09T01:19:02.728Z,9.83
2023-04-09T01:21:36.852Z,9.81
2023-04-09T01:24:21.414Z,9.78
2023-04-09T01:27:00.936Z,9.78
2023-04-09T01:29:35.931Z,9.80
2023-04-09T01:32:07.868Z,9.82
2023-04-09T01:34:44.389Z,9.86
2023-04-09T01:37:15.332Z,9.87
2023-04-09T01:39:45.774Z,9.90
2023-04-09T01:42:18.802Z,9.90
2023-04-09T01:44:51.738Z,9.91
2023-04-09T01:47:22.077Z,9.89
2023-04-09T01:49:52.338Z,9.89
2023-04-09T01:52:22.588Z,9.90
2023-04-09T01:54:52.471Z,9.91
2023-04-09T01:57:22.345Z,9.94
2023-04-09T01:59:55.029Z,9.97
2023-04-09T02:02:37.237Z,10.00
2023-04-09T02:05:10.679Z,10.01
2023-04-09T02:07:43.630Z,10.04
2023-04-09T02:10:17.598Z,10.07
2023-04-09T02:12:54.083Z,10.09
2023-04-09T02:15:27.889Z,10.10
2023-04-09T02:17:57.792Z,10.13
2023-04-09T02:20:27.760Z,10.14
2023-04-09T02:22:57.623Z,10.16
2023-04-09T02:25:28.353Z,10.17
2023-04-09T02:27:59.165Z,10.16
2023-04-09T02:30:31.698Z,10.18
2023-04-09T02:33:01.535Z,10.18
2023-04-09T02:35:31.440Z,10.19
2023-04-09T02:38:01.333Z,10.19
2023-04-09T02:40:31.398Z,10.20
2023-04-09T02:43:01.344Z,10.20
2023-04-09T02:45:33.981Z,10.18
2023-04-09T02:48:03.853Z,10.17
2023-04-09T02:50:33.773Z,10.16
2023-04-09T02:53:03.782Z,10.16
2023-04-09T02:55:34.082Z,10.15
2023-04-09T02:58:04.736Z,10.12
2023-04-09T03:00:37.243Z,10.10
2023-04-09T03:03:07.371Z,10.08
2023-04-09T03:05:42.749Z,10.08
2023-04-09T03:08:12.586Z,10.07
2023-04-09T03:10:42.418Z,10.06
2023-04-09T03:13:12.283Z,10.05
2023-04-09T03:15:47.758Z,10.05
2023-04-09T03:18:17.651Z,10.04
2023-04-09T03:20:47.573Z,10.02
2023-04-09T03:23:17.384Z,10.01
2023-04-09T03:25:47.432Z,9.97
2023-04-09T03:28:17.294Z,9.96
2023-04-09T03:30:49.723Z,9.96
2023-04-09T03:33:19.822Z,9.95
2023-04-09T03:35:49.727Z,9.93
2023-04-09T03:38:19.819Z,9.94
2023-04-09T03:40:49.662Z,9.94
2023-04-09T03:43:19.451Z,9.95
2023-04-09T03:45:51.875Z,9.93
2023-04-09T03:48:21.717Z,9.90
2023-04-09T03:50:51.946Z,9.89
2023-04-09T03:53:21.768Z,9.84
2023-04-09T03:55:51.621Z,9.81
2023-04-09T03:58:21.484Z,9.79
2023-04-09T04:00:53.870Z,9.79
2023-04-09T04:03:23.817Z,9.75
2023-04-09T04:05:54.615Z,9.73
2023-04-09T04:08:24.555Z,9.72
2023-04-09T04:10:54.379Z,9.72
2023-04-09T04:13:24.304Z,9.75
2023-04-09T04:15:56.837Z,9.75
2023-04-09T04:18:28.199Z,9.76
2023-04-09T04:20:58.011Z,9.77
2023-04-09T04:23:27.803Z,9.78
2023-04-09T04:25:58.369Z,9.77
2023-04-09T04:28:28.987Z,9.77
2023-04-09T04:31:01.429Z,9.76
2023-04-09T04:33:31.352Z,9.71
2023-04-09T04:36:07.791Z,9.64
2023-04-09T04:38:38.180Z,9.57
2023-04-09T04:41:08.759Z,9.49
2023-04-09T04:43:38.584Z,9.44
2023-04-09T04:46:11.202Z,9.41
2023-04-09T04:48:41.081Z,9.39
2023-04-09T04:51:10.950Z,9.39
2023-04-09T04:53:40.844Z,9.42
2023-04-09T04:56:16.203Z,9.39
2023-04-09T04:58:47.533Z,9.39
2023-04-09T05:01:20.062Z,9.38
2023-04-09T05:03:51.692Z,9.37
2023-04-09T05:06:21.756Z,9.37
2023-04-09T05:08:52.053Z,9.37
2023-04-09T05:11:22.137Z,9.39
2023-04-09T05:13:51.984Z,9.41
2023-04-09T05:16:27.347Z,9.39
2023-04-09T05:18:57.247Z,9.39
2023-04-09T05:21:27.806Z,9.38
2023-04-09T05:23:57.656Z,9.37
2023-04-09T05:26:27.588Z,9.38
2023-04-09T05:28:57.498Z,9.41
2023-04-09T05:31:30.879Z,9.45
2023-04-09T05:34:00.711Z,9.46
2023-04-09T05:36:30.575Z,9.47
2023-04-09T05:39:00.594Z,9.47
2023-04-09T05:41:30.554Z,9.45
2023-04-09T05:44:00.992Z,9.40
2023-04-09T05:46:33.710Z,9.35
2023-04-09T05:49:03.603Z,9.30
2023-04-09T05:51:33.678Z,9.25
2023-04-09T05:54:04.363Z,9.25
2023-04-09T05:56:34.241Z,9.25
2023-04-09T05:59:04.145Z,9.27
2023-04-09T06:01:36.882Z,9.31
2023-04-09T06:04:08.249Z,9.31
2023-04-09T06:06:40.327Z,9.30
2023-04-09T06:09:10.361Z,9.29
2023-04-09T06:11:40.155Z,9.27
2023-04-09T06:14:12.446Z,9.25
2023-04-09T06:16:44.932Z,9.24
2023-04-09T06:19:15.347Z,9.21
2023-04-09T06:21:45.204Z,9.19
2023-04-09T06:24:15.103Z,9.18
2023-04-09T06:26:44.978Z,9.19
2023-04-09T06:29:16.137Z,9.22
2023-04-09T06:31:48.760Z,9.25
2023-04-09T06:34:18.963Z,9.29
2023-04-09T06:37:20.066Z,9.36
2023-04-09T06:40:01.044Z,9.43
2023-04-09T06:42:42.591Z,9.45
2023-04-09T06:45:13.134Z,9.48
2023-04-09T06:47:45.588Z,9.51
2023-04-09T06:50:15.649Z,9.54
2023-04-09T06:52:45.760Z,9.58
2023-04-09T06:55:15.725Z,9.60
2023-04-09T06:57:45.520Z,9.61
2023-04-09T07:00:16.724Z,9.63
2023-04-09T07:02:49.548Z,9.62
2023-04-09T07:05:19.942Z,9.59
2023-04-09T07:07:49.755Z,9.59
2023-04-09T07:10:19.687Z,9.61
2023-04-09T07:12:51.102Z,9.59
2023-04-09T07:15:20.992Z,9.59
2023-04-09T07:17:53.597Z,9.60
2023-04-09T07:20:23.657Z,9.63
2023-04-09T07:22:53.472Z,9.67
2023-04-09T07:25:24.162Z,9.72
2023-04-09T07:27:54.023Z,9.77
2023-04-09T07:30:24.168Z,9.79
2023-04-09T07:32:56.720Z,9.83
2023-04-09T07:35:28.367Z,9.88
2023-04-09T07:38:00.553Z,9.93
2023-04-09T07:40:30.511Z,9.97
2023-04-09T07:43:00.366Z,10.01
2023-04-09T07:45:30.217Z,10.05
2023-04-09T07:48:06.625Z,10.07
2023-04-09T07:50:36.624Z,10.08
2023-04-09T07:53:06.471Z,10.09
2023-04-09T07:55:36.304Z,10.13
2023-04-09T07:58:07.537Z,10.17
2023-04-09T08:00:37.413Z,10.20
2023-04-09T08:03:10.126Z,10.23
2023-04-09T08:05:40.971Z,10.25
2023-04-09T08:08:10.798Z,10.29
2023-04-09T08:10:40.649Z,10.32
2023-04-09T08:13:11.970Z,10.32
2023-04-09T08:15:41.957Z,10.34
2023-04-09T08:18:14.470Z,10.37
2023-04-09T08:20:45.727Z,10.42
2023-04-09T08:23:15.649Z,10.45
2023-04-09T08:25:45.549Z,10.46
2023-04-09T08:28:15.458Z,10.50
2023-04-09T08:30:45.326Z,10.52
2023-04-09T08:33:17.866Z,10.54
2023-04-09T08:35:47.660Z,10.56
2023-04-09T08:38:18.033Z,10.56
2023-04-09T08:40:48.230Z,10.58
2023-04-09T08:43:19.393Z,10.59
2023-04-09T08:45:49.211Z,10.60
2023-04-09T08:48:22.769Z,10.59
2023-04-09T08:50:55.143Z,10.57
2023-04-09T08:53:25.933Z,10.53
2023-04-09T08:55:55.915Z,10.50
2023-04-09T08:58:25.766Z,10.52
2023-04-09T09:00:56.057Z,10.53
2023-04-09T09:03:28.655Z,10.53
2023-04-09T09:05:59.178Z,10.53
2023-04-09T09:08:30.949Z,10.44
2023-04-09T09:11:00.839Z,10.47
2023-04-09T09:13:31.324Z,10.48
2023-04-09T09:16:16.891Z,10.55
2023-04-09T09:18:49.957Z,10.56
2023-04-09T09:21:21.432Z,10.60
2023-04-09T09:23:51.475Z,10.65
2023-04-09T09:26:23.303Z,10.66
2023-04-09T09:28:54.011Z,10.61
2023-04-09T09:31:26.030Z,10.58
2023-04-09T09:34:01.347Z,10.63
2023-04-09T09:36:35.326Z,10.67
2023-04-09T09:39:12.632Z,10.68
2023-04-09T09:41:43.078Z,10.73
2023-04-09T09:44:14.386Z,10.76
2023-04-09T09:46:44.640Z,10.81
2023-04-09T09:49:17.120Z,10.83
2023-04-09T09:51:47.290Z,10.88
2023-04-09T09:54:22.038Z,10.93
2023-04-09T09:56:57.812Z,10.96
2023-04-09T09:59:33.389Z,10.95
2023-04-09T10:02:08.317Z,11.03
2023-04-09T10:04:41.915Z,11.09
2023-04-09T10:07:13.930Z,11.13
2023-04-09T10:09:45.650Z,11.21
2023-04-09T10:12:15.720Z,11.31
2023-04-09T10:14:46.666Z,11.37
2023-04-09T10:17:20.285Z,11.40
2023-04-09T10:19:59.901Z,11.44
2023-04-09T10:22:35.129Z,11.47
2023-04-09T10:25:06.720Z,11.45
2023-04-09T10:27:36.664Z,11.44
2023-04-09T10:30:10.576Z,11.41
2023-04-09T10:32:40.865Z,11.41
2023-04-09T10:35:13.537Z,11.44
2023-04-09T10:37:54.803Z,11.48
2023-04-09T10:40:24.792Z,11.53
2023-04-09T10:42:55.758Z,11.64
2023-04-09T10:45:26.560Z,11.74
2023-04-09T10:47:56.733Z,11.86
2023-04-09T10:50:34.712Z,11.99
2023-04-09T10:53:07.289Z,12.11
2023-04-09T10:55:39.374Z,12.20
2023-04-09T10:58:12.720Z,12.29
2023-04-09T11:00:44.825Z,12.37
2023-04-09T11:03:24.188Z,12.44
2023-04-09T11:06:00.666Z,12.51
2023-04-09T11:08:35.243Z,12.61
2023-04-09T11:11:06.179Z,12.62
2023-04-09T11:13:36.371Z,12.63
2023-04-09T11:16:07.416Z,12.69
2023-04-09T11:18:38.011Z,12.78
2023-04-09T11:21:11.310Z,12.86
2023-04-09T11:23:41.266Z,12.96
2023-04-09T11:26:13.805Z,13.07
2023-04-09T11:28:46.237Z,13.09
2023-04-09T11:31:16.929Z,13.19
2023-04-09T11:33:50.701Z,13.32
2023-04-09T11:36:24.630Z,13.39
2023-04-09T11:38:57.862Z,13.41
2023-04-09T11:41:37.029Z,13.45
2023-04-09T11:44:07.880Z,13.42
2023-04-09T11:46:38.659Z,13.44
2023-04-09T11:49:08.651Z,13.51
2023-04-09T11:51:41.226Z,13.53
2023-04-09T11:54:11.467Z,13.60
2023-04-09T11:56:41.325Z,13.60
2023-04-09T11:59:11.192Z,13.57
2023-04-09T12:01:41.077Z,13.52
2023-04-09T12:04:13.734Z,13.52
2023-04-09T12:06:46.441Z,13.62
2023-04-09T12:09:16.515Z,13.77
2023-04-09T12:11:47.301Z,13.91
2023-04-09T12:14:17.966Z,13.95
2023-04-09T12:16:48.285Z,14.02
2023-04-09T12:19:19.506Z,14.14
2023-04-09T12:21:53.424Z,14.23
2023-04-09T12:24:25.999Z,14.34
2023-04-09T12:26:57.562Z,14.44
2023-04-09T12:29:27.390Z,14.54
2023-04-09T12:31:57.254Z,14.54
2023-04-09T12:34:27.540Z,14.61
2023-04-09T12:37:01.496Z,14.68
2023-04-09T12:39:35.389Z,14.79
2023-04-09T12:42:05.197Z,14.84
2023-04-09T12:44:35.376Z,14.88
2023-04-09T12:47:05.300Z,14.91
2023-04-09T12:49:35.116Z,14.95
2023-04-09T12:52:07.689Z,15.00
2023-04-09T12:54:37.697Z,15.01
2023-04-09T12:57:07.486Z,15.06
2023-04-09T12:59:37.339Z,15.11
2023-04-09T13:02:08.172Z,15.14
2023-04-09T13:04:38.317Z,15.22
2023-04-09T13:07:15.286Z,15.28
2023-04-09T13:09:45.187Z,15.33
2023-04-09T13:12:16.262Z,15.40
2023-04-09T13:14:47.576Z,15.44
2023-04-09T13:17:17.541Z,15.41
2023-04-09T13:19:47.451Z,15.41
2023-04-09T13:22:19.921Z,15.43
2023-04-09T13:24:49.822Z,15.44
2023-04-09T13:27:20.115Z,15.50
2023-04-09T13:29:49.955Z,15.57
2023-04-09T13:32:21.283Z,15.65
2023-04-09T13:34:51.420Z,15.75
2023-04-09T13:37:28.504Z,15.80
2023-04-09T13:39:58.697Z,15.82
2023-04-09T13:42:28.788Z,15.87
2023-04-09T13:45:00.512Z,15.94
2023-04-09T13:47:30.405Z,16.01
2023-04-09T13:50:00.356Z,16.02
2023-04-09T13:52:32.804Z,15.97
2023-04-09T13:55:04.026Z,15.94
2023-04-09T13:57:33.964Z,15.91
2023-04-09T14:00:05.654Z,15.86
2023-04-09T14:02:35.622Z,15.79
2023-04-09T14:05:05.747Z,15.76
2023-04-09T14:07:38.196Z,15.74
2023-04-09T14:10:09.264Z,15.74
2023-04-09T14:12:39.132Z,15.75
2023-04-09T14:15:10.687Z,15.77
2023-04-09T14:17:40.654Z,15.82
2023-04-09T14:20:11.832Z,15.88
2023-04-09T14:22:49.286Z,15.95
2023-04-09T14:25:19.443Z,16.02
2023-04-09T14:27:49.347Z,16.07
2023-04-09T14:30:19.339Z,16.09
2023-04-09T14:32:49.306Z,16.10
2023-04-09T14:35:19.292Z,16.12
2023-04-09T14:37:55.340Z,16.13
2023-04-09T14:40:25.229Z,16.08
2023-04-09T14:42:55.206Z,16.05
2023-04-09T14:45:25.249Z,16.02
2023-04-09T14:47:55.308Z,16.02
2023-04-09T14:50:25.191Z,15.99
2023-04-09T14:52:57.646Z,15.98
2023-04-09T14:55:27.460Z,15.96
2023-04-09T14:57:59.853Z,15.96
2023-04-09T15:00:29.752Z,15.93
2023-04-09T15:03:02.036Z,15.90
2023-04-09T15:05:32.149Z,15.92
2023-04-09T15:08:04.603Z,15.93
2023-04-09T15:10:34.933Z,15.94
2023-04-09T15:13:04.823Z,15.96
2023-04-09T15:15:41.286Z,15.95
2023-04-09T15:18:11.142Z,15.95
2023-04-09T15:20:43.645Z,15.91
2023-04-09T15:23:16.557Z,15.91
2023-04-09T15:25:47.015Z,15.89
2023-04-09T15:28:16.935Z,15.89
2023-04-09T15:30:46.729Z,15.89
2023-04-09T15:33:16.649Z,15.90
2023-04-09T15:35:50.303Z,15.86
2023-04-09T15:38:26.654Z,15.83
2023-04-09T15:40:58.391Z,15.83
2023-04-09T15:43:28.314Z,15.80
2023-04-09T15:46:03.501Z,15.76
2023-04-09T15:48:33.530Z,15.77
2023-04-09T15:51:18.098Z,15.79
2023-04-09T15:53:50.547Z,15.78
2023-04-09T15:56:20.522Z,15.78
2023-04-09T15:58:50.376Z,15.77
2023-04-09T16:01:21.056Z,15.73
2023-04-09T16:03:52.493Z,15.69
2023-04-09T16:06:23.501Z,15.66
2023-04-09T16:08:56.763Z,15.63
2023-04-09T16:11:29.128Z,15.58
2023-04-09T16:13:59.220Z,15.59
2023-04-09T16:16:29.188Z,15.58
2023-04-09T16:19:00.552Z,15.57
2023-04-09T16:21:30.620Z,15.56
2023-04-09T16:24:04.067Z,15.54
2023-04-09T16:26:34.023Z,15.52
2023-04-09T16:29:04.602Z,15.52
2023-04-09T16:31:34.551Z,15.48
2023-04-09T16:34:04.479Z,15.43
2023-04-09T16:36:37.252Z,15.40
2023-04-09T16:39:21.564Z,15.35
2023-04-09T16:41:52.264Z,15.34
2023-04-09T16:44:22.119Z,15.35
2023-04-09T16:46:52.215Z,15.31
2023-04-09T16:49:22.055Z,15.28
2023-04-09T16:51:53.343Z,15.25
2023-04-09T16:54:25.828Z,15.27
2023-04-09T16:56:56.877Z,15.25
2023-04-09T16:59:26.742Z,15.26
2023-04-09T17:01:56.837Z,15.26
2023-04-09T17:04:27.556Z,15.25
2023-04-09T17:06:57.755Z,15.24
2023-04-09T17:09:31.677Z,15.22
2023-04-09T17:12:01.547Z,15.20
2023-04-09T17:14:33.921Z,15.17
2023-04-09T17:17:03.884Z,15.13
2023-04-09T17:19:47.644Z,15.10
2023-04-09T17:22:26.252Z,15.06
2023-04-09T17:24:58.777Z,15.03
2023-04-09T17:27:28.873Z,15.00
2023-04-09T17:29:58.972Z,14.95
2023-04-09T17:32:29.004Z,14.90
2023-04-09T17:35:03.852Z,14.84
2023-04-09T17:37:36.194Z,14.78
2023-04-09T17:40:10.263Z,14.73
2023-04-09T17:42:54.709Z,14.68
2023-04-09T17:45:24.725Z,14.61
2023-04-09T17:47:55.458Z,14.55
2023-04-09T17:50:27.781Z,14.49
2023-04-09T17:52:57.850Z,14.40
2023-04-09T17:55:30.753Z,14.33
2023-04-09T17:58:00.590Z,14.24
2023-04-09T18:00:33.136Z,14.16
2023-04-09T18:03:03.279Z,14.08
2023-04-09T18:05:33.586Z,13.98
2023-04-09T18:08:04.330Z,13.91
2023-04-09T18:10:43.333Z,13.84
2023-04-09T18:13:13.261Z,13.78
2023-04-09T18:15:43.485Z,13.70
2023-04-09T18:18:13.328Z,13.61
2023-04-09T18:20:45.150Z,13.55
2023-04-09T18:23:14.986Z,13.48
2023-04-09T18:25:47.554Z,13.42
2023-04-09T18:28:17.835Z,13.35
2023-04-09T18:30:47.683Z,13.31
2023-04-09T18:33:17.561Z,13.26
2023-04-09T18:35:47.464Z,13.19
2023-04-09T18:38:18.132Z,13.12
2023-04-09T18:40:50.581Z,13.06
2023-04-09T18:43:20.595Z,12.98
2023-04-09T18:45:50.420Z,12.90
2023-04-09T18:48:20.932Z,12.80
2023-04-09T18:50:50.859Z,12.75
2023-04-09T18:53:20.720Z,12.68
2023-04-09T18:55:53.210Z,12.64
2023-04-09T18:58:23.092Z,12.61
2023-04-09T19:00:54.767Z,12.54
2023-04-09T19:03:34.576Z,12.48
2023-04-09T19:06:04.674Z,12.43
2023-04-09T19:08:38.430Z,12.42
2023-04-09T19:11:11.261Z,12.37
2023-04-09T19:13:42.066Z,12.29
2023-04-09T19:16:12.571Z,12.25
2023-04-09T19:18:42.450Z,12.19
2023-04-09T19:21:12.355Z,12.15
2023-04-09T19:23:42.320Z,12.09
2023-04-09T19:26:15.792Z,12.04
2023-04-09T19:28:45.770Z,11.98
2023-04-09T19:31:17.202Z,11.92
2023-04-09T19:33:47.183Z,11.87
2023-04-09T19:36:17.083Z,11.83
2023-04-09T19:38:47.027Z,11.79
2023-04-09T19:41:19.671Z,11.75
2023-04-09T19:43:49.632Z,11.69
2023-04-09T19:46:19.513Z,11.64
2023-04-09T19:48:53.617Z,11.60
2023-04-09T19:51:23.746Z,11.58
2023-04-09T19:53:53.686Z,11.54
2023-04-09T19:56:26.183Z,11.52
2023-04-09T19:58:56.297Z,11.48
2023-04-09T20:01:26.452Z,11.46
2023-04-09T20:03:56.467Z,11.42
2023-04-09T20:06:27.344Z,11.38
2023-04-09T20:08:59.627Z,11.34
2023-04-09T20:11:32.187Z,11.31
2023-04-09T20:14:02.060Z,11.25
2023-04-09T20:16:32.363Z,11.22
2023-04-09T20:19:02.222Z,11.18
2023-04-09T20:21:32.049Z,11.14
2023-04-09T20:24:05.066Z,11.09
2023-04-09T20:26:37.466Z,11.06
2023-04-09T20:29:12.028Z,11.00
2023-04-09T20:31:42.581Z,10.96
2023-04-09T20:34:12.453Z,10.91
2023-04-09T20:36:44.094Z,10.89
2023-04-09T20:39:14.291Z,10.86
2023-04-09T20:41:46.751Z,10.83
2023-04-09T20:44:16.589Z,10.80
2023-04-09T20:46:46.370Z,10.76
2023-04-09T20:49:16.152Z,10.73
2023-04-09T20:51:46.508Z,10.69
2023-04-09T20:54:18.167Z,10.65
2023-04-09T20:56:51.506Z,10.59
2023-04-09T20:59:21.926Z,10.58
2023-04-09T21:01:51.858Z,10.54
2023-04-09T21:04:22.696Z,10.52
2023-04-09T21:06:52.664Z,10.49
2023-04-09T21:09:22.583Z,10.45
2023-04-09T21:11:55.114Z,10.42
2023-04-09T21:14:27.986Z,10.38
2023-04-09T21:16:57.867Z,10.34
2023-04-09T21:19:27.751Z,10.31
2023-04-09T21:21:57.715Z,10.29
2023-04-09T21:24:28.142Z,10.25
2023-04-09T21:27:02.607Z,10.24
2023-04-09T21:29:32.440Z,10.22
2023-04-09T21:32:02.555Z,10.16
2023-04-09T21:34:32.360Z,10.14
2023-04-09T21:37:02.235Z,10.11
2023-04-09T21:39:32.290Z,10.07
2023-04-09T21:42:06.006Z,10.04
2023-04-09T21:44:36.924Z,10.01
2023-04-09T21:47:09.129Z,10.01
2023-04-09T21:49:40.840Z,9.99
2023-04-09T21:52:15.040Z,9.96
2023-04-09T21:54:45.355Z,9.95
2023-04-09T21:57:18.674Z,9.92
2023-04-09T21:59:48.478Z,9.89
2023-04-09T22:02:18.488Z,9.86
2023-04-09T22:04:48.460Z,9.82
2023-04-09T22:07:18.415Z,9.79
2023-04-09T22:09:48.250Z,9.75
2023-04-09T22:12:20.638Z,9.70
2023-04-09T22:14:50.511Z,9.66
2023-04-09T22:17:20.350Z,9.61
2023-04-09T22:19:51.274Z,9.58
2023-04-09T22:22:21.207Z,9.56
2023-04-09T22:24:51.008Z,9.53
2023-04-09T22:27:23.434Z,9.53
2023-04-09T22:29:53.325Z,9.48
2023-04-09T22:32:23.177Z,9.46
2023-04-09T22:34:53.162Z,9.43
2023-04-09T22:37:27.999Z,9.40
2023-04-09T22:39:58.071Z,9.36
2023-04-09T22:42:30.525Z,9.36
2023-04-09T22:45:00.347Z,9.32
2023-04-09T22:47:30.598Z,9.30
2023-04-09T22:50:00.426Z,9.28
2023-04-09T22:52:30.240Z,9.26
2023-04-09T22:55:00.153Z,9.23
2023-04-09T22:57:32.863Z,9.22
2023-04-09T23:00:03.284Z,9.20
2023-04-09T23:02:33.243Z,9.19
2023-04-09T23:05:03.253Z,9.18
2023-04-09T23:07:33.112Z,9.17
2023-04-09T23:10:03.043Z,9.17
2023-04-09T23:12:36.088Z,9.17
2023-04-09T23:15:06.045Z,9.15
2023-04-09T23:17:39.991Z,9.16
2023-04-09T23:20:11.686Z,9.13
2023-04-09T23:22:41.508Z,9.10
2023-04-09T23:25:12.300Z,9.08
2023-04-09T23:27:44.987Z,9.07
2023-04-09T23:30:17.230Z,9.07
2023-04-09T23:32:47.878Z,9.07
2023-04-09T23:35:18.426Z,9.06
2023-04-09T23:37:53.398Z,9.06
2023-04-09T23:40:23.310Z,9.06
2023-04-09T23:42:56.004Z,9.06
2023-04-09T23:45:26.386Z,9.04
2023-04-09T23:47:58.242Z,9.01
2023-04-09T23:50:28.898Z,9.00
2023-04-09T23:53:03.586Z,8.98
2023-04-09T23:55:33.638Z,8.95
2023-04-09T23:58:06.124Z,8.94
